Time;durP1;ratioP1;P1;durP2;ratioP2;P2;SDS_P1;SDS_P2;PMS_P1;PMS_P2;Temp;Humidity;BMP_temperature;BMP_pressure;BME280_temperature;BME280_humidity;BME280_pressure;Samples;Min_cycle;Max_cycle;Signal;HPM_P1;HPM_P2
2022/02/10 00:14:48;;;;;;;2.08;1.58;;;;;;;7.12;48.49;96109.56;5052998;28;20032;-71
2022/02/10 00:36:06;;;;;;;1.88;1.50;;;;;;;7.09;48.53;96088.88;5058355;28;20542;-71
2022/02/10 00:38:34;;;;;;;;;;;;;;;7.17;47.97;96101.63;5034527;28;20028;-71
2022/02/10 00:41:00;;;;;;;2.38;1.70;;;;;;;7.17;48.11;96105.06;5052161;28;19912;-71
2022/02/10 00:43:25;;;;;;;1.75;1.52;;;;;;;7.14;47.83;96100.28;5052544;28;20035;-71
2022/02/10 00:45:51;;;;;;;2.67;2.10;;;;;;;7.17;48.80;96105.06;5034214;28;20021;-71
2022/02/10 00:48:17;;;;;;;1.88;1.65;;;;;;;7.00;48.49;96078.00;5052231;28;20405;-71
2022/02/10 00:50:45;;;;;;;2.63;1.80;;;;;;;7.13;48.46;96098.69;5039236;28;20048;-71
2022/02/10 00:53:17;;;;;;;1.92;1.70;;;;;;;7.18;48.41;96108.50;5051909;28;20090;-71
2022/02/10 00:55:45;;;;;;;3.58;1.80;;;;;;;6.96;48.71;96071.63;5052120;28;20029;-71
2022/02/10 00:58:19;;;;;;;3.20;1.80;;;;;;;7.07;48.17;96094.44;5052094;28;20115;-71
2022/02/10 01:30:52;;;;;;;1.75;1.40;;;;;;;6.84;47.85;96071.03;5051591;28;20394;-71
2022/02/10 01:33:19;;;;;;;2.35;1.52;;;;;;;6.94;48.68;96081.69;5051408;28;20457;-71
2022/02/10 01:35:44;;;;;;;3.50;1.50;;;;;;;7.00;48.42;96093.88;5055027;28;20054;-71
2022/02/10 01:38:10;;;;;;;1.63;1.48;;;;;;;6.97;48.41;96078.53;5051231;28;20104;-70
2022/02/10 01:41:07;;;;;;;1.85;1.65;;;;;;;6.97;47.96;96086.47;5050906;28;20028;-71
2022/02/10 02:03:28;;;;;;;1.98;1.58;;;;;;;6.70;48.95;96057.47;5050997;28;20795;-71
2022/02/10 02:05:36;;;;;;;1.60;1.50;;;;;;;6.71;49.11;96065.19;5042483;28;20408;-71
2022/02/10 02:08:02;;;;;;;2.13;1.77;;;;;;;6.70;48.41;96063.56;5038688;28;20449;-71
2022/02/10 02:10:27;;;;;;;2.20;1.70;;;;;;;6.81;48.71;96066.25;5052566;28;20107;-71
2022/02/10 02:12:53;;;;;;;1.83;1.67;;;;;;;6.64;48.30;96037.38;5052914;28;20496;-71
2022/02/10 02:15:18;;;;;;;2.00;1.70;;;;;;;6.46;48.65;96014.81;5070919;28;20469;-71
2022/02/10 02:17:44;;;;;;;1.85;1.63;;;;;;;6.73;48.75;96063.06;5071130;28;20056;-71
2022/02/10 02:20:10;;;;;;;1.88;1.48;;;;;;;6.76;48.79;96057.28;5052029;28;20028;-71
2022/02/10 02:22:35;;;;;;;2.78;1.67;;;;;;;6.57;49.08;96024.38;5042016;28;20083;-71
2022/02/10 02:25:01;;;;;;;2.20;1.65;;;;;;;6.38;48.45;95991.50;5050707;28;20505;-71
2022/02/10 02:27:44;;;;;;;1.83;1.40;;;;;;;6.51;48.89;96018.28;5049955;28;20049;-70
2022/02/10 02:31:16;;;;;;;1.23;1.13;;;;;;;6.73;48.76;96051.69;5050421;28;20028;-70
2022/02/10 02:33:56;;;;;;;1.75;1.30;;;;;;;6.39;48.81;95985.94;5042256;28;20401;-70
2022/02/10 02:39:21;;;;;;;1.73;1.50;;;;;;;6.58;49.06;96014.59;5064110;28;20174;-71
2022/02/10 03:05:01;;;;;;;1.25;1.00;;;;;;;6.44;48.00;95985.97;5050411;28;20460;-71
2022/02/10 03:06:43;;;;;;;2.30;1.23;;;;;;;6.48;48.13;95988.91;5036776;28;20513;-71
2022/02/10 03:09:12;;;;;;;10.68;1.40;;;;;;;6.52;48.32;95992.63;5065005;28;20063;-71
2022/02/10 03:11:40;;;;;;;1.33;1.13;;;;;;;6.53;47.76;95994.22;5070237;28;20031;-71
2022/02/10 03:14:13;;;;;;;1.40;1.30;;;;;;;6.65;47.92;96012.50;5070225;28;20111;-71
2022/02/10 04:05:53;;;;;;;2.05;1.10;;;;;;;6.29;47.45;95935.69;5053286;28;20067;-70
2022/02/10 04:08:08;;;;;;;1.50;0.98;;;;;;;6.70;46.85;96000.09;5058417;28;20055;-71
2022/02/10 04:14:06;;;;;;;1.42;1.00;;;;;;;6.58;46.73;95996.09;5053213;28;20107;-70
2022/02/10 04:21:10;;;;;;;1.35;1.13;;;;;;;6.58;46.81;95970.47;5055696;28;20504;-71
2022/02/10 05:24:49;;;;;;;4.65;1.52;;;;;;;6.50;47.20;95971.75;5051627;28;20083;-70
2022/02/10 05:35:34;;;;;;;1.38;1.15;;;;;;;6.25;47.13;95942.56;5051747;28;20456;-71
2022/02/10 05:38:16;;;;;;;;;;;;;;;6.44;46.78;95964.03;5054333;28;20036;-69
2022/02/10 05:43:38;;;;;;;1.58;1.02;;;;;;;6.18;46.74;95928.78;5051194;28;20128;-72
2022/02/10 05:49:19;;;;;;;3.97;1.30;;;;;;;6.43;46.36;95971.19;5051667;28;20064;-72
2022/02/10 07:51:33;;;;;;;6.47;2.33;;;;;;;8.38;42.05;95970.38;5073463;28;20071;-68
2022/02/10 08:04:47;;;;;;;3.58;2.30;;;;;;;9.04;41.36;95946.25;5052857;28;20059;-69
2022/02/10 08:56:05;;;;;;;4.70;1.52;;;;;;;12.01;34.85;95925.13;5064414;28;20039;-69
2022/02/10 09:10:47;;;;;;;6.30;1.77;;;;;;;12.84;34.29;95932.09;5037833;28;20071;-69
2022/02/10 09:56:34;;;;;;;4.65;1.85;;;;;;;13.12;34.43;95924.03;5066636;28;20089;-67
2022/02/10 10:04:17;;;;;;;4.68;1.85;;;;;;;13.59;34.42;95943.31;5070601;28;20024;-69
2022/02/10 10:06:55;;;;;;;5.50;2.00;;;;;;;14.36;33.38;95924.28;5070879;28;20032;-70
2022/02/10 10:09:46;;;;;;;3.30;1.90;;;;;;;14.15;33.48;95920.56;5052688;28;20057;-71
2022/02/10 10:12:38;;;;;;;9.70;2.00;;;;;;;14.25;33.50;95920.28;5032649;28;20025;-70
2022/02/10 10:18:37;;;;;;;5.95;1.90;;;;;;;13.99;34.13;95915.59;5050932;28;20500;-69
2022/02/10 10:23:53;;;;;;;4.53;2.05;;;;;;;13.91;34.36;95889.56;5050881;28;20397;-69
2022/02/10 10:54:24;;;;;;;3.90;2.63;;;;;;;13.75;35.66;95830.34;5061786;28;20377;-72
2022/02/10 10:56:53;;;;;;;1.40;1.27;;;;;;;13.19;35.87;95806.88;5045224;28;20040;-71
2022/02/10 11:22:16;;;;;;;5.38;2.15;;;;;;;14.45;34.19;95855.50;5054296;28;20033;-71
2022/02/10 11:41:47;;;;;;;5.38;2.00;;;;;;;14.91;32.86;95781.09;5053513;28;20536;-72
2022/02/10 12:29:26;;;;;;;7.30;1.90;;;;;;;15.51;31.61;95817.78;5052339;28;20059;-70
2022/02/10 14:11:12;;;;;;;6.25;2.85;;;;;;;15.45;35.27;95736.72;5066968;28;20082;-69
2022/02/10 14:13:37;;;;;;;6.43;2.50;;;;;;;14.70;36.33;95722.81;5050902;28;20025;-69
2022/02/10 14:16:50;;;;;;;6.15;2.72;;;;;;;15.09;36.38;95743.25;5050780;28;20075;-69
2022/02/10 14:18:56;;;;;;;3.25;2.58;;;;;;;14.53;37.24;95733.50;5044429;28;20048;-70
2022/02/10 14:21:30;;;;;;;4.32;2.35;;;;;;;14.20;37.84;95741.16;5050504;28;20032;-69
2022/02/10 14:26:31;;;;;;;4.47;2.45;;;;;;;14.63;37.68;95759.19;5053389;28;20044;-70
2022/02/10 14:28:57;;;;;;;7.30;2.42;;;;;;;14.65;37.50;95765.81;5050629;28;20032;-70
2022/02/10 14:31:22;;;;;;;4.28;1.98;;;;;;;14.08;37.91;95773.88;5032442;28;20033;-69
2022/02/10 14:33:49;;;;;;;7.03;3.33;;;;;;;14.59;37.48;95739.50;5032716;28;20036;-69
2022/02/10 14:36:49;;;;;;;10.13;2.85;;;;;;;14.17;37.65;95773.88;5032451;28;20468;-69
2022/02/10 15:54:35;;;;;;;5.28;3.20;;;;;;;13.56;38.54;95724.75;5056734;28;20062;-68
2022/02/10 16:10:52;;;;;;;5.40;3.00;;;;;;;13.94;38.06;95741.09;5053546;28;20045;-67
2022/02/10 16:18:42;;;;;;;7.38;2.63;;;;;;;12.64;40.32;95717.13;5053161;28;20067;-66
2022/02/10 16:21:08;;;;;;;7.07;3.35;;;;;;;12.93;39.91;95716.69;5052864;28;20453;-65
2022/02/10 16:23:35;;;;;;;4.43;2.85;;;;;;;12.64;40.41;95703.78;5052990;28;20029;-68
2022/02/10 16:26:15;;;;;;;7.20;3.35;;;;;;;12.95;40.10;95727.06;5055735;28;20116;-71
2022/02/10 16:28:44;;;;;;;7.88;3.53;;;;;;;12.82;39.91;95696.66;5034820;28;20468;-69
2022/02/10 16:31:11;;;;;;;9.18;3.78;;;;;;;12.90;39.37;95689.81;5052310;28;20025;-67
2022/02/10 16:33:38;;;;;;;7.70;3.42;;;;;;;12.56;40.20;95711.69;5052351;28;20757;-70
2022/02/10 16:36:05;;;;;;;6.45;4.50;;;;;;;12.41;39.79;95638.91;5034766;28;20025;-69
2022/02/10 16:38:32;;;;;;;4.35;3.00;;;;;;;12.82;40.61;95730.59;5052373;28;20067;-68
2022/02/10 16:40:58;;;;;;;8.43;3.85;;;;;;;12.69;40.14;95668.13;5054639;28;20539;-69
2022/02/10 16:43:25;;;;;;;9.75;3.90;;;;;;;12.05;40.96;95660.28;5052395;28;20037;-75
2022/02/10 16:45:51;;;;;;;7.28;3.45;;;;;;;12.48;40.62;95703.31;5051856;28;20025;-69
2022/02/10 16:48:17;;;;;;;7.35;4.22;;;;;;;13.16;39.78;95709.44;5051810;28;20032;-70
2022/02/10 16:50:48;;;;;;;7.57;4.22;;;;;;;12.78;40.26;95701.03;5052313;28;20029;-72
2022/02/10 16:53:25;;;;;;;8.75;3.90;;;;;;;13.07;39.53;95715.81;5034567;28;20028;-69
2022/02/10 16:56:02;;;;;;;9.18;4.32;;;;;;;12.77;40.26;95712.00;5053499;28;20079;-71
2022/02/10 17:14:11;;;;;;;6.82;4.07;;;;;;;13.03;39.42;95683.59;5052028;28;20508;-72
2022/02/10 17:19:35;;;;;;;9.23;3.83;;;;;;;13.15;39.73;95717.75;5052545;28;20075;-76
2022/02/10 17:35:18;;;;;;;6.05;3.65;;;;;;;11.99;42.68;95724.69;5051875;28;20120;-71
2022/02/10 17:46:18;;;;;;;15.20;4.55;;;;;;;12.22;42.42;95774.31;5051347;28;20113;-71
2022/02/10 17:51:46;;;;;;;8.10;4.00;;;;;;;12.09;42.41;95756.47;5051615;28;20497;-72
2022/02/10 17:54:13;;;;;;;9.70;4.75;;;;;;;12.49;42.48;95778.84;5051328;28;20028;-72
2022/02/10 17:56:40;;;;;;;7.63;5.10;;;;;;;12.15;42.14;95737.38;5067073;28;20039;-71
2022/02/10 17:59:07;;;;;;;5.82;3.88;;;;;;;12.00;42.96;95766.25;5050938;28;20021;-71
2022/02/10 18:01:33;;;;;;;5.95;4.55;;;;;;;11.44;46.21;95779.50;5050983;28;20381;-70
2022/02/10 18:03:59;;;;;;;9.40;5.30;;;;;;;11.33;48.66;95778.09;5051142;28;20032;-69
2022/02/10 18:16:59;;;;;;;8.05;6.90;;;;;;;11.99;48.10;95815.31;5023810;28;19912;-70
2022/02/10 18:20:01;;;;;;;8.63;6.97;;;;;;;11.60;50.29;95824.53;5071015;28;20115;-69
2022/02/10 18:25:16;;;;;;;10.88;7.00;;;;;;;11.19;50.73;95811.88;5070928;28;20083;-73
2022/02/10 18:28:02;;;;;;;;;;;;;;;12.02;48.62;95826.16;5041636;28;20389;-73
2022/02/10 18:33:23;;;;;;;12.52;7.53;;;;;;;11.57;49.75;95815.25;5050588;28;19923;-72
2022/02/10 19:08:11;;;;;;;14.30;8.60;;;;;;;11.44;50.27;95851.41;5050814;28;20044;-72
2022/02/10 19:10:45;;;;;;;12.60;8.35;;;;;;;12.16;48.46;95845.63;5039897;28;20056;-68
2022/02/10 19:13:10;;;;;;;16.00;8.32;;;;;;;12.23;48.38;95866.56;5063063;28;20421;-69
2022/02/10 19:15:36;;;;;;;10.18;7.32;;;;;;;12.93;46.74;95855.53;5054668;28;20095;-70
2022/02/10 19:18:04;;;;;;;11.70;7.68;;;;;;;12.72;45.47;95768.97;5054368;28;20037;-67
2022/02/10 19:20:32;;;;;;;11.73;7.80;;;;;;;12.22;46.71;95783.09;5053863;28;20031;-68
2022/02/10 19:22:58;;;;;;;13.32;8.25;;;;;;;12.22;47.07;95787.66;5054032;28;20028;-70
2022/02/10 19:25:23;;;;;;;15.38;9.30;;;;;;;11.54;49.92;95849.66;5058356;28;20029;-70
2022/02/10 19:27:49;;;;;;;17.05;8.35;;;;;;;11.38;50.31;95841.94;5053583;28;20044;-70
2022/02/10 19:30:17;;;;;;;11.05;8.32;;;;;;;11.81;49.06;95811.63;5053013;28;20031;-69
2022/02/10 19:32:57;;;;;;;13.30;8.63;;;;;;;12.07;48.78;95858.06;5053816;28;20028;-69
2022/02/10 19:35:25;;;;;;;11.50;8.20;;;;;;;11.54;48.43;95804.38;5054303;28;20039;-69
2022/02/10 19:37:58;;;;;;;12.40;7.53;;;;;;;11.83;48.85;95834.28;5053871;28;20713;-69
2022/02/10 19:40:29;;;;;;;13.35;8.10;;;;;;;11.08;50.86;95842.41;5057261;28;20166;-69
2022/02/10 19:42:56;;;;;;;13.82;9.43;;;;;;;12.18;49.05;95864.00;5053717;28;20016;-70
2022/02/10 19:45:24;;;;;;;12.80;8.23;;;;;;;12.08;48.45;95856.19;5053644;28;20033;-71
2022/02/10 19:47:50;;;;;;;15.25;9.23;;;;;;;11.84;49.67;95859.84;5054032;28;20618;-72
2022/02/10 19:50:22;;;;;;;13.48;9.57;;;;;;;12.40;48.78;95898.00;5053116;28;20031;-71
2022/02/10 19:52:49;;;;;;;12.77;9.38;;;;;;;12.04;49.36;95877.34;5053559;28;20037;-71
2022/02/10 19:55:21;;;;;;;17.20;9.45;;;;;;;11.80;49.63;95879.34;5056568;28;20028;-71
2022/02/10 19:57:48;;;;;;;11.63;9.15;;;;;;;11.88;49.95;95868.84;5073749;28;20021;-73
2022/02/10 20:00:21;;;;;;;12.98;9.07;;;;;;;11.83;49.34;95874.25;5073636;28;20046;-72
2022/02/10 20:02:48;;;;;;;13.57;8.85;;;;;;;11.36;50.83;95886.72;5073748;28;20027;-72
2022/02/10 20:05:13;;;;;;;12.15;9.30;;;;;;;11.23;51.47;95866.16;5073637;28;20031;-71
2022/02/10 20:07:41;;;;;;;14.63;10.13;;;;;;;12.19;49.03;95878.94;5055369;28;20388;-70
2022/02/10 20:10:09;;;;;;;11.05;9.40;;;;;;;12.36;47.90;95879.13;5072453;28;20025;-70
2022/02/10 20:12:37;;;;;;;17.55;10.45;;;;;;;12.27;48.00;95896.91;5062804;28;20051;-70
2022/02/10 20:15:03;;;;;;;19.83;9.68;;;;;;;11.99;49.11;95890.78;5052932;28;20021;-71
2022/02/10 20:17:28;;;;;;;19.00;10.90;;;;;;;11.85;49.59;95887.28;5053090;28;20078;-71
2022/02/10 20:19:54;;;;;;;18.98;11.07;;;;;;;11.89;49.60;95870.41;5034735;28;20025;-71
2022/02/10 20:22:20;;;;;;;16.70;9.70;;;;;;;12.10;48.53;95880.72;5051563;28;20032;-71
2022/02/10 20:24:46;;;;;;;16.13;9.80;;;;;;;12.12;48.59;95886.53;5034790;28;20017;-70
2022/02/10 20:27:11;;;;;;;13.05;10.27;;;;;;;12.17;48.45;95865.88;5054520;28;20120;-71
2022/02/10 20:29:37;;;;;;;17.90;9.65;;;;;;;12.41;48.36;95876.38;5052528;28;20100;-71
2022/02/10 20:32:02;;;;;;;17.75;10.20;;;;;;;12.44;47.92;95875.00;5034932;28;20017;-70
2022/02/10 20:34:31;;;;;;;16.08;10.45;;;;;;;12.67;47.91;95902.53;5053099;28;20025;-70
2022/02/10 20:36:59;;;;;;;15.82;10.98;;;;;;;12.74;46.93;95876.22;5034759;28;20700;-70
2022/02/10 20:39:27;;;;;;;19.05;10.52;;;;;;;12.61;47.46;95890.41;5052634;28;20033;-71
2022/02/10 20:42:01;;;;;;;16.23;11.32;;;;;;;12.84;47.21;95877.91;5053908;28;20033;-71
2022/02/10 20:44:27;;;;;;;16.63;10.30;;;;;;;13.13;46.09;95881.00;5052549;28;20020;-71
2022/02/10 20:46:53;;;;;;;16.70;10.32;;;;;;;13.36;46.00;95903.22;5052189;28;20064;-70
2022/02/10 20:49:18;;;;;;;14.23;10.88;;;;;;;13.45;45.54;95877.34;5034146;28;20106;-69
2022/02/10 20:51:49;;;;;;;14.05;10.15;;;;;;;13.71;45.00;95888.19;5052403;28;20573;-70
2022/02/10 20:54:15;;;;;;;12.85;9.90;;;;;;;13.63;45.37;95891.63;5052922;28;20025;-70
2022/02/10 20:56:41;;;;;;;17.30;11.00;;;;;;;13.70;45.08;95891.19;5053454;28;20017;-71
2022/02/10 20:59:19;;;;;;;16.73;10.43;;;;;;;13.64;44.80;95871.81;5066825;28;20100;-70
2022/02/10 21:01:47;;;;;;;25.35;11.38;;;;;;;13.84;44.39;95891.13;5072288;28;20028;-71
2022/02/10 21:04:13;;;;;;;18.83;11.40;;;;;;;13.78;44.08;95874.41;5072163;28;20588;-70
2022/02/10 21:09:14;;;;;;;18.65;11.98;;;;;;;13.71;44.30;95849.97;5072176;28;20454;-70
2022/02/10 21:11:40;;;;;;;15.90;11.40;;;;;;;13.92;44.05;95890.38;5045757;28;20115;-72
2022/02/10 21:14:13;;;;;;;19.88;12.00;;;;;;;13.87;44.23;95853.06;5039215;28;20032;-70
2022/02/10 21:16:41;;;;;;;19.65;12.25;;;;;;;13.87;43.86;95847.72;5051785;28;20033;-70
2022/02/10 21:19:06;;;;;;;22.48;12.48;;;;;;;13.93;43.57;95868.69;5051781;28;20029;-72
2022/02/10 21:21:32;;;;;;;21.95;12.30;;;;;;;13.77;44.02;95870.19;5051343;28;20027;-67
2022/02/10 21:24:06;;;;;;;16.88;11.85;;;;;;;13.75;43.83;95873.13;5051443;28;20036;-69
2022/02/10 21:26:45;;;;;;;17.67;11.10;;;;;;;13.47;44.00;95839.63;5061240;28;20037;-68
2022/02/10 21:29:10;;;;;;;19.08;12.07;;;;;;;13.43;44.36;95860.81;5055864;28;20423;-70
2022/02/10 21:31:43;;;;;;;15.20;11.73;;;;;;;13.37;44.60;95872.75;5051310;28;20082;-72
2022/02/10 21:34:15;;;;;;;17.27;11.32;;;;;;;12.94;45.67;95838.41;5033901;28;20032;-72
2022/02/10 22:21:12;;;;;;;14.77;9.10;;;;;;;13.41;43.26;95796.22;5050930;28;20095;-68
2022/02/10 22:23:42;;;;;;;15.55;9.57;;;;;;;13.57;43.13;95804.63;5033160;28;20108;-69
2022/02/10 22:26:17;;;;;;;12.63;9.23;;;;;;;13.66;43.15;95804.66;5037235;28;20020;-70
2022/02/10 22:28:52;;;;;;;12.10;8.73;;;;;;;13.56;42.91;95797.69;5050610;28;20103;-70
2022/02/10 22:36:19;;;;;;;12.23;8.82;;;;;;;13.67;42.86;95807.06;5050814;28;20021;-69
2022/02/10 22:38:47;;;;;;;15.02;9.77;;;;;;;13.63;42.67;95798.06;5050595;28;20029;-69
2022/02/10 22:41:13;;;;;;;16.20;8.90;;;;;;;13.65;42.70;95797.75;5037127;28;20029;-69
2022/02/10 22:43:42;;;;;;;9.50;8.32;;;;;;;13.62;42.56;95795.69;5052515;28;20114;-69
2022/02/10 22:46:09;;;;;;;10.55;9.45;;;;;;;13.76;42.51;95813.22;5052233;28;20067;-69
2022/02/10 22:48:35;;;;;;;11.27;7.90;;;;;;;13.83;42.50;95799.41;5070851;28;20060;-69
2022/02/10 22:51:01;;;;;;;13.93;9.13;;;;;;;13.84;42.49;95794.84;5052713;28;20749;-69
2022/02/10 22:53:27;;;;;;;11.80;8.10;;;;;;;13.75;42.14;95784.91;5070685;28;20020;-69
2022/02/10 22:55:53;;;;;;;11.35;7.97;;;;;;;13.77;42.41;95782.72;5069731;28;20051;-69
2022/02/10 22:58:19;;;;;;;9.07;7.95;;;;;;;13.85;42.09;95788.41;5052442;28;20044;-69
2022/02/10 23:00:48;;;;;;;13.95;8.43;;;;;;;13.85;42.19;95783.06;5051799;28;20452;-68
2022/02/10 23:03:22;;;;;;;12.75;9.10;;;;;;;13.78;42.08;95778.16;5070598;28;20079;-69
2022/02/10 23:05:48;;;;;;;9.57;7.95;;;;;;;13.81;41.85;95780.19;5052531;28;20052;-69
2022/02/10 23:08:14;;;;;;;12.05;7.65;;;;;;;13.86;41.99;95777.41;5052622;28;20024;-69
2022/02/10 23:10:49;;;;;;;11.13;8.13;;;;;;;13.70;41.79;95755.63;5070700;28;20017;-69
2022/02/10 23:13:26;;;;;;;11.52;7.03;;;;;;;13.74;41.94;95758.47;5050512;28;20361;-69
2022/02/10 23:15:53;;;;;;;9.85;7.20;;;;;;;13.91;42.05;95774.59;5050485;28;20055;-69
2022/02/10 23:18:24;;;;;;;11.05;8.13;;;;;;;13.81;42.04;95750.00;5032580;28;20036;-69
2022/02/10 23:20:51;;;;;;;8.67;7.50;;;;;;;13.91;42.04;95771.91;5032401;28;20031;-69
2022/02/10 23:23:19;;;;;;;10.95;7.40;;;;;;;13.74;42.06;95745.91;5050285;28;20803;-68
2022/02/10 23:25:48;;;;;;;9.30;7.80;;;;;;;13.88;42.23;95774.44;5050148;28;20033;-69
2022/02/10 23:28:16;;;;;;;10.30;7.82;;;;;;;13.92;42.03;95770.84;5043376;28;20586;-70
2022/02/10 23:30:46;;;;;;;13.02;8.10;;;;;;;13.86;42.02;95756.00;5049761;28;20119;-69
2022/02/10 23:38:12;;;;;;;9.05;7.40;;;;;;;14.10;41.58;95749.47;5050370;28;20047;-68
2022/02/10 23:40:57;;;;;;;12.18;7.30;;;;;;;13.91;41.61;95731.78;5049738;28;20029;-69
2022/02/10 23:43:23;;;;;;;9.30;8.38;;;;;;;13.93;41.68;95739.53;5049151;28;20055;-69
2022/02/10 23:45:49;;;;;;;8.30;7.18;;;;;;;13.95;41.96;95743.44;5070297;28;20418;-68
2022/02/10 23:48:14;;;;;;;9.90;6.63;;;;;;;13.91;41.95;95725.66;5070197;28;20024;-68
2022/02/10 23:50:41;;;;;;;12.15;7.78;;;;;;;13.92;41.75;95722.69;5069633;28;20025;-69
2022/02/10 23:53:07;;;;;;;10.70;7.70;;;;;;;13.99;42.15;95755.13;5070253;28;20036;-69
2022/02/10 23:55:36;;;;;;;10.30;6.50;;;;;;;13.81;42.14;95713.34;5052750;28;20025;-69
